sensor_id;sensor_type;location;lat;lon;timestamp;temperature;humidity
19085;DHT22;9675;51.538;6.728;2023-01-15T00:01:19;10.10;99.90
19085;DHT22;9675;51.538;6.728;2023-01-15T00:03:50;10.00;99.90
19085;DHT22;9675;51.538;6.728;2023-01-15T00:06:18;10.00;99.90
19085;DHT22;9675;51.538;6.728;2023-01-15T00:08:46;9.90;99.90
19085;DHT22;9675;51.538;6.728;2023-01-15T00:11:14;9.90;99.90
19085;DHT22;9675;51.538;6.728;2023-01-15T00:13:41;9.80;99.90
19085;DHT22;9675;51.538;6.728;2023-01-15T00:16:10;9.80;99.90
19085;DHT22;9675;51.538;6.728;2023-01-15T00:18:39;9.80;99.90
19085;DHT22;9675;51.538;6.728;2023-01-15T00:21:10;9.70;99.90
19085;DHT22;9675;51.538;6.728;2023-01-15T00:23:38;9.70;99.90
19085;DHT22;9675;51.538;6.728;2023-01-15T00:26:28;9.70;99.90
19085;DHT22;9675;51.538;6.728;2023-01-15T00:29:14;9.70;99.90
19085;DHT22;9675;51.538;6.728;2023-01-15T00:31:42;9.60;99.90
19085;DHT22;9675;51.538;6.728;2023-01-15T00:34:16;9.60;99.90
19085;DHT22;9675;51.538;6.728;2023-01-15T00:36:44;9.60;99.90
19085;DHT22;9675;51.538;6.728;2023-01-15T00:39:12;9.60;99.90
19085;DHT22;9675;51.538;6.728;2023-01-15T00:41:39;9.50;99.90
19085;DHT22;9675;51.538;6.728;2023-01-15T00:44:06;9.50;99.90
19085;DHT22;9675;51.538;6.728;2023-01-15T00:46:33;9.40;99.90
19085;DHT22;9675;51.538;6.728;2023-01-15T00:49:00;9.40;99.90
19085;DHT22;9675;51.538;6.728;2023-01-15T00:51:27;9.40;99.90
19085;DHT22;9675;51.538;6.728;2023-01-15T00:53:55;9.40;99.90
19085;DHT22;9675;51.538;6.728;2023-01-15T00:56:22;9.40;99.90
19085;DHT22;9675;51.538;6.728;2023-01-15T00:58:49;9.30;99.90
19085;DHT22;9675;51.538;6.728;2023-01-15T01:01:16;9.30;99.90
19085;DHT22;9675;51.538;6.728;2023-01-15T01:03:43;9.30;99.90
19085;DHT22;9675;51.538;6.728;2023-01-15T01:06:13;9.20;99.90
19085;DHT22;9675;51.538;6.728;2023-01-15T01:08:41;9.20;99.90
19085;DHT22;9675;51.538;6.728;2023-01-15T01:11:13;9.20;99.90
19085;DHT22;9675;51.538;6.728;2023-01-15T01:13:42;9.20;99.90
19085;DHT22;9675;51.538;6.728;2023-01-15T01:16:31;9.20;99.90
19085;DHT22;9675;51.538;6.728;2023-01-15T01:19:01;9.10;99.90
19085;DHT22;9675;51.538;6.728;2023-01-15T01:21:32;9.10;99.90
19085;DHT22;9675;51.538;6.728;2023-01-15T01:23:59;9.10;99.90
19085;DHT22;9675;51.538;6.728;2023-01-15T01:26:28;9.10;99.90
19085;DHT22;9675;51.538;6.728;2023-01-15T01:28:56;9.00;99.90
19085;DHT22;9675;51.538;6.728;2023-01-15T01:31:24;9.00;99.90
19085;DHT22;9675;51.538;6.728;2023-01-15T01:33:53;9.00;99.90
19085;DHT22;9675;51.538;6.728;2023-01-15T01:36:26;9.00;99.90
19085;DHT22;9675;51.538;6.728;2023-01-15T01:38:55;9.00;99.90
19085;DHT22;9675;51.538;6.728;2023-01-15T01:41:23;8.90;99.90
19085;DHT22;9675;51.538;6.728;2023-01-15T01:43:56;8.90;99.90
19085;DHT22;9675;51.538;6.728;2023-01-15T01:46:26;8.90;99.90
19085;DHT22;9675;51.538;6.728;2023-01-15T01:49:00;8.80;99.90
19085;DHT22;9675;51.538;6.728;2023-01-15T01:51:34;8.80;99.90
19085;DHT22;9675;51.538;6.728;2023-01-15T01:54:04;8.80;99.90
19085;DHT22;9675;51.538;6.728;2023-01-15T01:56:33;8.80;99.90
19085;DHT22;9675;51.538;6.728;2023-01-15T01:59:03;8.80;99.90
19085;DHT22;9675;51.538;6.728;2023-01-15T02:01:32;8.70;99.90
19085;DHT22;9675;51.538;6.728;2023-01-15T02:04:05;8.70;99.90
19085;DHT22;9675;51.538;6.728;2023-01-15T02:06:35;8.70;99.90
19085;DHT22;9675;51.538;6.728;2023-01-15T02:09:03;8.70;99.90
19085;DHT22;9675;51.538;6.728;2023-01-15T02:11:32;8.70;99.90
19085;DHT22;9675;51.538;6.728;2023-01-15T02:14:07;8.70;99.90
19085;DHT22;9675;51.538;6.728;2023-01-15T02:16:44;8.70;99.90
19085;DHT22;9675;51.538;6.728;2023-01-15T02:19:29;8.70;99.90
19085;DHT22;9675;51.538;6.728;2023-01-15T02:22:20;8.60;99.90
19085;DHT22;9675;51.538;6.728;2023-01-15T02:25:03;8.50;99.90
19085;DHT22;9675;51.538;6.728;2023-01-15T02:27:42;8.50;99.90
19085;DHT22;9675;51.538;6.728;2023-01-15T02:30:18;8.50;99.90
19085;DHT22;9675;51.538;6.728;2023-01-15T02:32:55;8.50;99.90
19085;DHT22;9675;51.538;6.728;2023-01-15T02:35:28;8.50;99.90
19085;DHT22;9675;51.538;6.728;2023-01-15T02:38:03;8.50;99.90
19085;DHT22;9675;51.538;6.728;2023-01-15T02:40:34;8.40;99.90
19085;DHT22;9675;51.538;6.728;2023-01-15T02:43:05;8.50;99.90
19085;DHT22;9675;51.538;6.728;2023-01-15T02:45:37;8.50;99.90
19085;DHT22;9675;51.538;6.728;2023-01-15T02:48:10;8.50;99.90
19085;DHT22;9675;51.538;6.728;2023-01-15T02:50:42;8.50;99.90
19085;DHT22;9675;51.538;6.728;2023-01-15T02:53:16;8.50;99.90
19085;DHT22;9675;51.538;6.728;2023-01-15T02:55:49;8.50;99.90
19085;DHT22;9675;51.538;6.728;2023-01-15T02:58:24;8.50;99.90
19085;DHT22;9675;51.538;6.728;2023-01-15T03:00:57;8.50;99.90
19085;DHT22;9675;51.538;6.728;2023-01-15T03:03:33;8.40;99.90
19085;DHT22;9675;51.538;6.728;2023-01-15T03:06:09;8.40;99.90
19085;DHT22;9675;51.538;6.728;2023-01-15T03:08:40;8.40;99.90
19085;DHT22;9675;51.538;6.728;2023-01-15T03:11:09;8.40;99.90
19085;DHT22;9675;51.538;6.728;2023-01-15T03:13:44;8.40;99.90
19085;DHT22;9675;51.538;6.728;2023-01-15T03:16:18;8.30;99.90
19085;DHT22;9675;51.538;6.728;2023-01-15T03:19:03;8.30;99.90
19085;DHT22;9675;51.538;6.728;2023-01-15T03:21:43;8.30;99.90
19085;DHT22;9675;51.538;6.728;2023-01-15T03:24:23;8.30;99.90
19085;DHT22;9675;51.538;6.728;2023-01-15T03:26:54;8.30;99.90
19085;DHT22;9675;51.538;6.728;2023-01-15T03:29:26;8.30;99.90
19085;DHT22;9675;51.538;6.728;2023-01-15T03:31:57;8.30;99.90
19085;DHT22;9675;51.538;6.728;2023-01-15T03:34:30;8.30;99.90
19085;DHT22;9675;51.538;6.728;2023-01-15T03:37:02;8.20;99.90
19085;DHT22;9675;51.538;6.728;2023-01-15T03:39:29;8.30;99.90
19085;DHT22;9675;51.538;6.728;2023-01-15T03:42:05;8.20;99.90
19085;DHT22;9675;51.538;6.728;2023-01-15T03:44:48;8.30;99.90
19085;DHT22;9675;51.538;6.728;2023-01-15T03:47:29;8.20;99.90
19085;DHT22;9675;51.538;6.728;2023-01-15T03:50:12;8.20;99.90
19085;DHT22;9675;51.538;6.728;2023-01-15T03:52:49;8.20;99.90
19085;DHT22;9675;51.538;6.728;2023-01-15T03:55:25;8.20;99.90
19085;DHT22;9675;51.538;6.728;2023-01-15T03:58:01;8.20;99.90
19085;DHT22;9675;51.538;6.728;2023-01-15T04:00:41;8.20;99.90
19085;DHT22;9675;51.538;6.728;2023-01-15T04:03:15;8.20;99.90
19085;DHT22;9675;51.538;6.728;2023-01-15T04:05:44;8.20;99.90
19085;DHT22;9675;51.538;6.728;2023-01-15T04:08:13;8.20;99.90
19085;DHT22;9675;51.538;6.728;2023-01-15T04:10:50;8.20;99.90
19085;DHT22;9675;51.538;6.728;2023-01-15T04:13:19;8.20;99.90
19085;DHT22;9675;51.538;6.728;2023-01-15T04:15:47;8.20;99.90
19085;DHT22;9675;51.538;6.728;2023-01-15T04:18:14;8.20;99.90
19085;DHT22;9675;51.538;6.728;2023-01-15T04:20:42;8.20;99.90
19085;DHT22;9675;51.538;6.728;2023-01-15T04:23:10;8.10;99.90
19085;DHT22;9675;51.538;6.728;2023-01-15T04:25:37;8.20;99.90
19085;DHT22;9675;51.538;6.728;2023-01-15T04:28:06;8.10;99.90
19085;DHT22;9675;51.538;6.728;2023-01-15T04:30:33;8.10;99.90
19085;DHT22;9675;51.538;6.728;2023-01-15T04:33:03;8.10;99.90
19085;DHT22;9675;51.538;6.728;2023-01-15T04:35:30;8.10;99.90
19085;DHT22;9675;51.538;6.728;2023-01-15T04:37:58;8.10;99.90
19085;DHT22;9675;51.538;6.728;2023-01-15T04:40:26;8.10;99.90
19085;DHT22;9675;51.538;6.728;2023-01-15T04:43:12;8.10;99.90
19085;DHT22;9675;51.538;6.728;2023-01-15T04:45:59;8.10;99.90
19085;DHT22;9675;51.538;6.728;2023-01-15T04:48:27;8.10;99.90
19085;DHT22;9675;51.538;6.728;2023-01-15T04:50:56;8.10;99.90
19085;DHT22;9675;51.538;6.728;2023-01-15T04:53:24;8.10;99.90
19085;DHT22;9675;51.538;6.728;2023-01-15T04:55:52;8.00;99.90
19085;DHT22;9675;51.538;6.728;2023-01-15T04:58:26;8.10;99.90
19085;DHT22;9675;51.538;6.728;2023-01-15T05:00:53;8.10;99.90
19085;DHT22;9675;51.538;6.728;2023-01-15T05:03:20;8.10;99.90
19085;DHT22;9675;51.538;6.728;2023-01-15T05:05:48;8.10;99.90
19085;DHT22;9675;51.538;6.728;2023-01-15T05:08:15;8.00;99.90
19085;DHT22;9675;51.538;6.728;2023-01-15T05:10:42;8.00;99.90
19085;DHT22;9675;51.538;6.728;2023-01-15T05:13:10;8.00;99.90
19085;DHT22;9675;51.538;6.728;2023-01-15T05:15:37;8.00;99.90
19085;DHT22;9675;51.538;6.728;2023-01-15T05:18:05;8.00;99.90
19085;DHT22;9675;51.538;6.728;2023-01-15T05:20:35;8.00;99.90
19085;DHT22;9675;51.538;6.728;2023-01-15T05:23:04;8.00;99.90
19085;DHT22;9675;51.538;6.728;2023-01-15T05:25:31;8.00;99.90
19085;DHT22;9675;51.538;6.728;2023-01-15T05:27:58;8.00;99.90
19085;DHT22;9675;51.538;6.728;2023-01-15T05:30:25;8.00;99.90
19085;DHT22;9675;51.538;6.728;2023-01-15T05:32:52;8.00;99.90
19085;DHT22;9675;51.538;6.728;2023-01-15T05:35:19;8.00;99.90
19085;DHT22;9675;51.538;6.728;2023-01-15T05:37:46;8.00;99.90
19085;DHT22;9675;51.538;6.728;2023-01-15T05:40:15;8.00;99.90
19085;DHT22;9675;51.538;6.728;2023-01-15T05:42:42;8.00;99.90
19085;DHT22;9675;51.538;6.728;2023-01-15T05:45:10;8.00;99.90
19085;DHT22;9675;51.538;6.728;2023-01-15T05:47:36;8.00;99.90
19085;DHT22;9675;51.538;6.728;2023-01-15T05:50:04;8.00;99.90
19085;DHT22;9675;51.538;6.728;2023-01-15T05:52:31;7.90;99.90
19085;DHT22;9675;51.538;6.728;2023-01-15T05:54:58;8.00;99.90
19085;DHT22;9675;51.538;6.728;2023-01-15T05:57:27;7.90;99.90
19085;DHT22;9675;51.538;6.728;2023-01-15T05:59:54;8.00;99.90
19085;DHT22;9675;51.538;6.728;2023-01-15T06:02:21;8.00;99.90
19085;DHT22;9675;51.538;6.728;2023-01-15T06:04:48;8.00;99.90
19085;DHT22;9675;51.538;6.728;2023-01-15T06:07:15;8.00;99.90
19085;DHT22;9675;51.538;6.728;2023-01-15T06:09:42;7.90;99.90
19085;DHT22;9675;51.538;6.728;2023-01-15T06:12:10;7.90;99.90
19085;DHT22;9675;51.538;6.728;2023-01-15T06:14:38;7.90;99.90
19085;DHT22;9675;51.538;6.728;2023-01-15T06:17:05;7.90;99.90
19085;DHT22;9675;51.538;6.728;2023-01-15T06:19:33;7.90;99.90
19085;DHT22;9675;51.538;6.728;2023-01-15T06:22:00;7.90;99.90
19085;DHT22;9675;51.538;6.728;2023-01-15T06:24:28;7.90;99.90
19085;DHT22;9675;51.538;6.728;2023-01-15T06:26:55;7.90;99.90
19085;DHT22;9675;51.538;6.728;2023-01-15T06:29:22;7.90;99.90
19085;DHT22;9675;51.538;6.728;2023-01-15T06:31:50;7.90;99.90
19085;DHT22;9675;51.538;6.728;2023-01-15T06:34:17;7.90;99.90
19085;DHT22;9675;51.538;6.728;2023-01-15T06:36:44;7.90;99.90
19085;DHT22;9675;51.538;6.728;2023-01-15T06:39:11;7.90;99.90
19085;DHT22;9675;51.538;6.728;2023-01-15T06:41:38;7.90;99.90
19085;DHT22;9675;51.538;6.728;2023-01-15T06:44:23;7.90;99.90
19085;DHT22;9675;51.538;6.728;2023-01-15T06:47:13;7.90;99.90
19085;DHT22;9675;51.538;6.728;2023-01-15T06:49:50;7.80;99.90
19085;DHT22;9675;51.538;6.728;2023-01-15T06:52:19;7.80;99.90
19085;DHT22;9675;51.538;6.728;2023-01-15T06:54:46;7.80;99.90
19085;DHT22;9675;51.538;6.728;2023-01-15T06:57:13;7.80;99.90
19085;DHT22;9675;51.538;6.728;2023-01-15T06:59:40;7.80;99.90
19085;DHT22;9675;51.538;6.728;2023-01-15T07:02:09;7.80;99.90
19085;DHT22;9675;51.538;6.728;2023-01-15T07:04:37;7.80;99.90
19085;DHT22;9675;51.538;6.728;2023-01-15T07:07:04;7.80;99.90
19085;DHT22;9675;51.538;6.728;2023-01-15T07:09:31;7.80;99.90
19085;DHT22;9675;51.538;6.728;2023-01-15T07:11:59;7.80;99.90
19085;DHT22;9675;51.538;6.728;2023-01-15T07:14:26;7.80;99.90
19085;DHT22;9675;51.538;6.728;2023-01-15T07:16:54;7.80;99.90
19085;DHT22;9675;51.538;6.728;2023-01-15T07:19:24;7.80;99.90
19085;DHT22;9675;51.538;6.728;2023-01-15T07:21:53;7.80;99.90
19085;DHT22;9675;51.538;6.728;2023-01-15T07:24:20;7.80;99.90
19085;DHT22;9675;51.538;6.728;2023-01-15T07:26:49;7.80;99.90
19085;DHT22;9675;51.538;6.728;2023-01-15T07:29:17;7.80;99.90
19085;DHT22;9675;51.538;6.728;2023-01-15T07:31:44;7.80;99.90
19085;DHT22;9675;51.538;6.728;2023-01-15T07:34:11;7.70;99.90
19085;DHT22;9675;51.538;6.728;2023-01-15T07:36:38;7.80;99.90
19085;DHT22;9675;51.538;6.728;2023-01-15T07:39:07;7.70;99.90
19085;DHT22;9675;51.538;6.728;2023-01-15T07:41:37;7.70;99.90
19085;DHT22;9675;51.538;6.728;2023-01-15T07:44:21;7.80;99.90
19085;DHT22;9675;51.538;6.728;2023-01-15T07:47:14;7.70;99.90
19085;DHT22;9675;51.538;6.728;2023-01-15T07:50:01;7.70;99.90
19085;DHT22;9675;51.538;6.728;2023-01-15T07:52:31;7.70;99.90
19085;DHT22;9675;51.538;6.728;2023-01-15T07:55:00;7.70;99.90
19085;DHT22;9675;51.538;6.728;2023-01-15T07:57:28;7.70;99.90
19085;DHT22;9675;51.538;6.728;2023-01-15T07:59:56;7.70;99.90
19085;DHT22;9675;51.538;6.728;2023-01-15T08:02:23;7.70;99.90
19085;DHT22;9675;51.538;6.728;2023-01-15T08:04:50;7.70;99.90
19085;DHT22;9675;51.538;6.728;2023-01-15T08:07:17;7.70;99.90
19085;DHT22;9675;51.538;6.728;2023-01-15T08:09:47;7.60;99.90
19085;DHT22;9675;51.538;6.728;2023-01-15T08:12:17;7.60;99.90
19085;DHT22;9675;51.538;6.728;2023-01-15T08:15:03;7.60;99.90
19085;DHT22;9675;51.538;6.728;2023-01-15T08:17:42;7.60;99.90
19085;DHT22;9675;51.538;6.728;2023-01-15T08:20:12;7.60;99.90
19085;DHT22;9675;51.538;6.728;2023-01-15T08:22:41;7.60;99.90
19085;DHT22;9675;51.538;6.728;2023-01-15T08:25:11;7.60;99.90
19085;DHT22;9675;51.538;6.728;2023-01-15T08:27:41;7.60;99.90
19085;DHT22;9675;51.538;6.728;2023-01-15T08:30:10;7.60;99.90
19085;DHT22;9675;51.538;6.728;2023-01-15T08:32:39;7.60;99.90
19085;DHT22;9675;51.538;6.728;2023-01-15T08:35:07;7.60;99.90
19085;DHT22;9675;51.538;6.728;2023-01-15T08:37:35;7.60;99.90
19085;DHT22;9675;51.538;6.728;2023-01-15T08:40:02;7.60;99.90
19085;DHT22;9675;51.538;6.728;2023-01-15T08:42:30;7.60;99.90
19085;DHT22;9675;51.538;6.728;2023-01-15T08:44:59;7.60;99.90
19085;DHT22;9675;51.538;6.728;2023-01-15T08:47:26;7.60;99.90
19085;DHT22;9675;51.538;6.728;2023-01-15T08:49:53;7.60;99.90
19085;DHT22;9675;51.538;6.728;2023-01-15T08:52:20;7.50;99.90
19085;DHT22;9675;51.538;6.728;2023-01-15T08:54:47;7.50;99.90
19085;DHT22;9675;51.538;6.728;2023-01-15T08:57:15;7.50;99.90
19085;DHT22;9675;51.538;6.728;2023-01-15T08:59:42;7.50;99.90
19085;DHT22;9675;51.538;6.728;2023-01-15T09:02:13;7.50;99.90
19085;DHT22;9675;51.538;6.728;2023-01-15T09:04:42;7.50;99.90
19085;DHT22;9675;51.538;6.728;2023-01-15T09:07:09;7.50;99.90
19085;DHT22;9675;51.538;6.728;2023-01-15T09:09:37;7.50;99.90
19085;DHT22;9675;51.538;6.728;2023-01-15T09:12:04;7.50;99.90
19085;DHT22;9675;51.538;6.728;2023-01-15T09:14:32;7.50;99.90
19085;DHT22;9675;51.538;6.728;2023-01-15T09:16:59;7.50;99.90
19085;DHT22;9675;51.538;6.728;2023-01-15T09:19:28;7.50;99.90
19085;DHT22;9675;51.538;6.728;2023-01-15T09:21:55;7.50;99.90
19085;DHT22;9675;51.538;6.728;2023-01-15T09:24:22;7.50;99.90
19085;DHT22;9675;51.538;6.728;2023-01-15T09:26:49;7.50;99.90
19085;DHT22;9675;51.538;6.728;2023-01-15T09:29:18;7.40;99.90
19085;DHT22;9675;51.538;6.728;2023-01-15T09:31:46;7.50;99.90
19085;DHT22;9675;51.538;6.728;2023-01-15T09:34:13;7.50;99.90
19085;DHT22;9675;51.538;6.728;2023-01-15T09:36:44;7.50;99.90
19085;DHT22;9675;51.538;6.728;2023-01-15T09:39:11;7.50;99.90
19085;DHT22;9675;51.538;6.728;2023-01-15T09:41:55;7.40;99.90
19085;DHT22;9675;51.538;6.728;2023-01-15T09:44:38;7.50;99.90
19085;DHT22;9675;51.538;6.728;2023-01-15T09:47:29;7.50;99.90
19085;DHT22;9675;51.538;6.728;2023-01-15T09:50:14;7.40;99.90
19085;DHT22;9675;51.538;6.728;2023-01-15T09:53:16;7.50;99.90
19085;DHT22;9675;51.538;6.728;2023-01-15T09:55:57;7.50;99.90
19085;DHT22;9675;51.538;6.728;2023-01-15T09:58:31;7.50;99.90
19085;DHT22;9675;51.538;6.728;2023-01-15T10:01:01;7.50;99.90
19085;DHT22;9675;51.538;6.728;2023-01-15T10:03:33;7.50;99.90
19085;DHT22;9675;51.538;6.728;2023-01-15T10:06:11;7.60;99.90
19085;DHT22;9675;51.538;6.728;2023-01-15T10:08:44;7.60;99.90
19085;DHT22;9675;51.538;6.728;2023-01-15T10:11:38;7.60;99.90
19085;DHT22;9675;51.538;6.728;2023-01-15T10:14:35;7.60;99.90
19085;DHT22;9675;51.538;6.728;2023-01-15T10:17:18;7.60;99.90
19085;DHT22;9675;51.538;6.728;2023-01-15T10:19:50;7.60;99.90
19085;DHT22;9675;51.538;6.728;2023-01-15T10:22:28;7.70;99.90
19085;DHT22;9675;51.538;6.728;2023-01-15T10:25:12;7.70;99.90
19085;DHT22;9675;51.538;6.728;2023-01-15T10:27:44;7.70;99.90
19085;DHT22;9675;51.538;6.728;2023-01-15T10:30:23;7.80;99.90
19085;DHT22;9675;51.538;6.728;2023-01-15T10:33:03;7.80;99.90
19085;DHT22;9675;51.538;6.728;2023-01-15T10:35:47;7.90;99.90
19085;DHT22;9675;51.538;6.728;2023-01-15T10:38:26;7.90;99.90
19085;DHT22;9675;51.538;6.728;2023-01-15T10:41:21;8.00;99.90
19085;DHT22;9675;51.538;6.728;2023-01-15T10:44:00;8.00;99.90
19085;DHT22;9675;51.538;6.728;2023-01-15T10:46:36;8.00;99.90
19085;DHT22;9675;51.538;6.728;2023-01-15T10:49:13;8.00;99.90
19085;DHT22;9675;51.538;6.728;2023-01-15T10:51:44;8.10;99.90
19085;DHT22;9675;51.538;6.728;2023-01-15T10:54:17;8.10;99.90
19085;DHT22;9675;51.538;6.728;2023-01-15T10:56:55;8.10;99.90
19085;DHT22;9675;51.538;6.728;2023-01-15T10:59:35;8.10;99.90
19085;DHT22;9675;51.538;6.728;2023-01-15T11:02:22;8.10;99.90
19085;DHT22;9675;51.538;6.728;2023-01-15T11:04:54;8.20;99.90
19085;DHT22;9675;51.538;6.728;2023-01-15T11:07:25;8.20;99.90
19085;DHT22;9675;51.538;6.728;2023-01-15T11:10:04;8.20;99.90
19085;DHT22;9675;51.538;6.728;2023-01-15T11:12:36;8.20;99.90
19085;DHT22;9675;51.538;6.728;2023-01-15T11:15:25;8.30;99.90
19085;DHT22;9675;51.538;6.728;2023-01-15T11:18:16;8.30;99.90
19085;DHT22;9675;51.538;6.728;2023-01-15T11:21:11;8.30;99.90
19085;DHT22;9675;51.538;6.728;2023-01-15T11:23:41;8.30;99.90
19085;DHT22;9675;51.538;6.728;2023-01-15T11:26:09;8.30;99.90
19085;DHT22;9675;51.538;6.728;2023-01-15T11:28:45;8.30;99.90
19085;DHT22;9675;51.538;6.728;2023-01-15T11:31:16;8.30;99.90
19085;DHT22;9675;51.538;6.728;2023-01-15T11:33:57;8.30;99.90
19085;DHT22;9675;51.538;6.728;2023-01-15T11:36:27;8.30;99.90
19085;DHT22;9675;51.538;6.728;2023-01-15T11:38:58;8.30;99.90
19085;DHT22;9675;51.538;6.728;2023-01-15T11:41:28;8.30;99.90
19085;DHT22;9675;51.538;6.728;2023-01-15T11:44:24;8.40;99.90
19085;DHT22;9675;51.538;6.728;2023-01-15T11:47:10;8.40;99.90
19085;DHT22;9675;51.538;6.728;2023-01-15T11:49:56;8.40;99.90
19085;DHT22;9675;51.538;6.728;2023-01-15T11:52:44;8.30;99.90
19085;DHT22;9675;51.538;6.728;2023-01-15T11:55:14;8.40;99.90
19085;DHT22;9675;51.538;6.728;2023-01-15T11:57:45;8.40;99.90
19085;DHT22;9675;51.538;6.728;2023-01-15T12:00:21;8.40;99.90
19085;DHT22;9675;51.538;6.728;2023-01-15T12:02:52;8.40;99.90
19085;DHT22;9675;51.538;6.728;2023-01-15T12:05:27;8.40;99.90
19085;DHT22;9675;51.538;6.728;2023-01-15T12:08:00;8.50;99.90
19085;DHT22;9675;51.538;6.728;2023-01-15T12:10:33;8.50;99.90
19085;DHT22;9675;51.538;6.728;2023-01-15T12:13:29;8.50;99.90
19085;DHT22;9675;51.538;6.728;2023-01-15T12:16:10;8.50;99.90
19085;DHT22;9675;51.538;6.728;2023-01-15T12:18:53;8.50;99.90
19085;DHT22;9675;51.538;6.728;2023-01-15T12:21:52;8.40;99.90
19085;DHT22;9675;51.538;6.728;2023-01-15T12:25:17;8.50;99.90
19085;DHT22;9675;51.538;6.728;2023-01-15T12:27:54;8.50;99.90
19085;DHT22;9675;51.538;6.728;2023-01-15T12:30:29;8.50;99.90
19085;DHT22;9675;51.538;6.728;2023-01-15T12:33:12;8.50;99.90
19085;DHT22;9675;51.538;6.728;2023-01-15T12:35:50;8.50;99.90
19085;DHT22;9675;51.538;6.728;2023-01-15T12:38:29;8.50;99.90
19085;DHT22;9675;51.538;6.728;2023-01-15T12:41:10;8.60;99.90
19085;DHT22;9675;51.538;6.728;2023-01-15T12:43:43;8.70;99.90
19085;DHT22;9675;51.538;6.728;2023-01-15T12:46:33;8.80;99.90
19085;DHT22;9675;51.538;6.728;2023-01-15T12:49:14;8.80;99.90
19085;DHT22;9675;51.538;6.728;2023-01-15T12:52:01;8.80;99.90
19085;DHT22;9675;51.538;6.728;2023-01-15T12:54:37;8.80;99.90
19085;DHT22;9675;51.538;6.728;2023-01-15T12:57:13;8.80;99.90
19085;DHT22;9675;51.538;6.728;2023-01-15T12:59:47;8.80;99.90
19085;DHT22;9675;51.538;6.728;2023-01-15T13:02:26;8.90;99.90
19085;DHT22;9675;51.538;6.728;2023-01-15T13:05:12;8.90;99.90
19085;DHT22;9675;51.538;6.728;2023-01-15T13:07:48;8.80;99.90
19085;DHT22;9675;51.538;6.728;2023-01-15T13:10:23;8.80;99.90
19085;DHT22;9675;51.538;6.728;2023-01-15T13:12:53;8.90;99.90
19085;DHT22;9675;51.538;6.728;2023-01-15T13:15:28;8.90;99.90
19085;DHT22;9675;51.538;6.728;2023-01-15T13:18:05;8.90;99.90
19085;DHT22;9675;51.538;6.728;2023-01-15T13:20:46;8.90;99.90
19085;DHT22;9675;51.538;6.728;2023-01-15T13:23:27;8.90;99.90
19085;DHT22;9675;51.538;6.728;2023-01-15T13:26:15;8.80;99.90
19085;DHT22;9675;51.538;6.728;2023-01-15T13:29:04;8.90;99.90
19085;DHT22;9675;51.538;6.728;2023-01-15T13:31:52;8.90;99.90
19085;DHT22;9675;51.538;6.728;2023-01-15T13:34:34;8.80;99.90
19085;DHT22;9675;51.538;6.728;2023-01-15T13:37:15;8.90;99.90
19085;DHT22;9675;51.538;6.728;2023-01-15T13:39:49;8.80;99.90
19085;DHT22;9675;51.538;6.728;2023-01-15T13:42:21;8.80;99.90
19085;DHT22;9675;51.538;6.728;2023-01-15T13:45:06;8.90;99.90
19085;DHT22;9675;51.538;6.728;2023-01-15T13:47:53;8.90;99.90
19085;DHT22;9675;51.538;6.728;2023-01-15T13:50:28;8.90;99.90
19085;DHT22;9675;51.538;6.728;2023-01-15T13:53:04;8.80;99.90
19085;DHT22;9675;51.538;6.728;2023-01-15T13:55:37;8.80;99.90
19085;DHT22;9675;51.538;6.728;2023-01-15T13:58:20;8.80;99.90
19085;DHT22;9675;51.538;6.728;2023-01-15T14:01:01;8.90;99.90
19085;DHT22;9675;51.538;6.728;2023-01-15T14:03:33;8.80;99.90
19085;DHT22;9675;51.538;6.728;2023-01-15T14:06:04;8.80;99.90
19085;DHT22;9675;51.538;6.728;2023-01-15T14:08:41;8.90;99.90
19085;DHT22;9675;51.538;6.728;2023-01-15T14:11:33;8.90;99.90
19085;DHT22;9675;51.538;6.728;2023-01-15T14:14:15;8.90;99.90
19085;DHT22;9675;51.538;6.728;2023-01-15T14:17:00;8.90;99.90
19085;DHT22;9675;51.538;6.728;2023-01-15T14:19:55;8.90;99.90
19085;DHT22;9675;51.538;6.728;2023-01-15T14:22:48;8.90;99.90
19085;DHT22;9675;51.538;6.728;2023-01-15T14:25:41;8.90;99.90
19085;DHT22;9675;51.538;6.728;2023-01-15T14:28:28;9.00;99.90
19085;DHT22;9675;51.538;6.728;2023-01-15T14:34:15;8.90;99.90
19085;DHT22;9675;51.538;6.728;2023-01-15T14:36:55;8.90;99.90
19085;DHT22;9675;51.538;6.728;2023-01-15T14:39:29;8.90;99.90
19085;DHT22;9675;51.538;6.728;2023-01-15T14:42:06;8.90;99.90
19085;DHT22;9675;51.538;6.728;2023-01-15T14:44:56;9.00;99.90
19085;DHT22;9675;51.538;6.728;2023-01-15T14:47:30;8.90;99.90
19085;DHT22;9675;51.538;6.728;2023-01-15T14:50:31;8.90;99.90
19085;DHT22;9675;51.538;6.728;2023-01-15T14:53:25;8.90;99.90
19085;DHT22;9675;51.538;6.728;2023-01-15T14:56:09;8.80;99.90
19085;DHT22;9675;51.538;6.728;2023-01-15T14:58:50;8.90;99.90
19085;DHT22;9675;51.538;6.728;2023-01-15T15:01:29;8.90;99.90
19085;DHT22;9675;51.538;6.728;2023-01-15T15:04:07;8.90;99.90
19085;DHT22;9675;51.538;6.728;2023-01-15T15:06:45;8.90;99.90
19085;DHT22;9675;51.538;6.728;2023-01-15T15:09:25;8.90;99.90
19085;DHT22;9675;51.538;6.728;2023-01-15T15:12:02;8.80;99.90
19085;DHT22;9675;51.538;6.728;2023-01-15T15:14:52;8.90;99.90
19085;DHT22;9675;51.538;6.728;2023-01-15T15:17:30;8.90;99.90
19085;DHT22;9675;51.538;6.728;2023-01-15T15:20:20;8.90;99.90
19085;DHT22;9675;51.538;6.728;2023-01-15T15:22:55;8.80;99.90
19085;DHT22;9675;51.538;6.728;2023-01-15T15:25:29;8.80;99.90
19085;DHT22;9675;51.538;6.728;2023-01-15T15:28:03;8.80;99.90
19085;DHT22;9675;51.538;6.728;2023-01-15T15:30:35;8.80;99.90
19085;DHT22;9675;51.538;6.728;2023-01-15T15:33:15;8.80;99.90
19085;DHT22;9675;51.538;6.728;2023-01-15T15:35:46;8.80;99.90
19085;DHT22;9675;51.538;6.728;2023-01-15T15:38:19;8.80;99.90
19085;DHT22;9675;51.538;6.728;2023-01-15T15:40:50;8.80;99.90
19085;DHT22;9675;51.538;6.728;2023-01-15T15:43:25;8.80;99.90
19085;DHT22;9675;51.538;6.728;2023-01-15T15:46:25;8.80;99.90
19085;DHT22;9675;51.538;6.728;2023-01-15T15:49:11;8.80;99.90
19085;DHT22;9675;51.538;6.728;2023-01-15T15:51:39;8.70;99.90
19085;DHT22;9675;51.538;6.728;2023-01-15T15:54:15;8.70;99.90
19085;DHT22;9675;51.538;6.728;2023-01-15T15:56:47;8.80;99.90
19085;DHT22;9675;51.538;6.728;2023-01-15T15:59:30;8.70;99.90
19085;DHT22;9675;51.538;6.728;2023-01-15T16:02:12;8.70;99.90
19085;DHT22;9675;51.538;6.728;2023-01-15T16:04:46;8.80;99.90
19085;DHT22;9675;51.538;6.728;2023-01-15T16:07:14;8.70;99.90
19085;DHT22;9675;51.538;6.728;2023-01-15T16:09:52;8.70;99.90
19085;DHT22;9675;51.538;6.728;2023-01-15T16:12:22;8.70;99.90
19085;DHT22;9675;51.538;6.728;2023-01-15T16:14:53;8.70;99.90
19085;DHT22;9675;51.538;6.728;2023-01-15T16:17:24;8.70;99.90
19085;DHT22;9675;51.538;6.728;2023-01-15T16:19:53;8.60;99.90
19085;DHT22;9675;51.538;6.728;2023-01-15T16:22:22;8.70;99.90
19085;DHT22;9675;51.538;6.728;2023-01-15T16:24:53;8.70;99.90
19085;DHT22;9675;51.538;6.728;2023-01-15T16:27:22;8.70;99.90
19085;DHT22;9675;51.538;6.728;2023-01-15T16:29:55;8.70;99.90
19085;DHT22;9675;51.538;6.728;2023-01-15T16:32:25;8.70;99.90
19085;DHT22;9675;51.538;6.728;2023-01-15T16:35:04;8.60;99.90
19085;DHT22;9675;51.538;6.728;2023-01-15T16:37:33;8.60;99.90
19085;DHT22;9675;51.538;6.728;2023-01-15T16:40:05;8.60;99.90
19085;DHT22;9675;51.538;6.728;2023-01-15T16:42:35;8.50;99.90
19085;DHT22;9675;51.538;6.728;2023-01-15T16:45:19;8.50;99.90
19085;DHT22;9675;51.538;6.728;2023-01-15T16:48:13;8.50;99.90
19085;DHT22;9675;51.538;6.728;2023-01-15T16:50:51;8.50;99.90